sensor_id;sensor_type;location;lat;lon;timestamp;pressure;altitude;pressure_sealevel;temperature;humidity
49759;BME280;70329;45.524;10.194;2024-01-06T00:00:56;98718.59;;;7.93;100.00
49759;BME280;70329;45.524;10.194;2024-01-06T00:03:24;98716.47;;;7.90;100.00
49759;BME280;70329;45.524;10.194;2024-01-06T00:05:54;98717.00;;;7.92;100.00
49759;BME280;70329;45.524;10.194;2024-01-06T00:08:22;98710.50;;;7.88;100.00
49759;BME280;70329;45.524;10.194;2024-01-06T00:10:49;98692.75;;;7.90;100.00
49759;BME280;70329;45.524;10.194;2024-01-06T00:13:20;98693.28;;;7.92;100.00
49759;BME280;70329;45.524;10.194;2024-01-06T00:15:47;98686.78;;;7.88;100.00
49759;BME280;70329;45.524;10.194;2024-01-06T00:18:15;98680.00;;;7.86;100.00
49759;BME280;70329;45.524;10.194;2024-01-06T00:20:43;98678.38;;;7.85;100.00
49759;BME280;70329;45.524;10.194;2024-01-06T00:23:11;98687.09;;;7.87;100.00
49759;BME280;70329;45.524;10.194;2024-01-06T00:25:38;98684.19;;;7.78;100.00
49759;BME280;70329;45.524;10.194;2024-01-06T00:28:06;98688.91;;;7.73;100.00
49759;BME280;70329;45.524;10.194;2024-01-06T00:30:34;98683.22;;;7.69;100.00
49759;BME280;70329;45.524;10.194;2024-01-06T00:33:02;98690.66;;;7.63;100.00
49759;BME280;70329;45.524;10.194;2024-01-06T00:35:31;98694.03;;;7.55;100.00
49759;BME280;70329;45.524;10.194;2024-01-06T00:37:59;98695.44;;;7.53;100.00
49759;BME280;70329;45.524;10.194;2024-01-06T00:40:30;98697.09;;;7.49;100.00
49759;BME280;70329;45.524;10.194;2024-01-06T00:42:59;98695.59;;;7.38;100.00
49759;BME280;70329;45.524;10.194;2024-01-06T00:45:29;98698.31;;;7.38;100.00
49759;BME280;70329;45.524;10.194;2024-01-06T00:47:57;98706.50;;;7.38;100.00
49759;BME280;70329;45.524;10.194;2024-01-06T00:50:25;98700.47;;;7.41;100.00
49759;BME280;70329;45.524;10.194;2024-01-06T00:52:54;98705.56;;;7.47;100.00
49759;BME280;70329;45.524;10.194;2024-01-06T00:55:24;98705.34;;;7.44;100.00
49759;BME280;70329;45.524;10.194;2024-01-06T00:57:52;98722.00;;;7.42;100.00
49759;BME280;70329;45.524;10.194;2024-01-06T01:00:19;98721.22;;;7.37;100.00
49759;BME280;70329;45.524;10.194;2024-01-06T01:02:47;98729.63;;;7.40;100.00
49759;BME280;70329;45.524;10.194;2024-01-06T01:05:15;98721.25;;;7.32;100.00
49759;BME280;70329;45.524;10.194;2024-01-06T01:07:43;98727.25;;;7.34;100.00
49759;BME280;70329;45.524;10.194;2024-01-06T01:10:12;98725.38;;;7.29;100.00
49759;BME280;70329;45.524;10.194;2024-01-06T01:12:39;98731.63;;;7.30;100.00
49759;BME280;70329;45.524;10.194;2024-01-06T01:15:06;98734.34;;;7.06;100.00
49759;BME280;70329;45.524;10.194;2024-01-06T01:17:34;98741.41;;;7.07;100.00
49759;BME280;70329;45.524;10.194;2024-01-06T01:20:03;98753.31;;;7.16;100.00
49759;BME280;70329;45.524;10.194;2024-01-06T01:22:33;98738.69;;;7.07;100.00
49759;BME280;70329;45.524;10.194;2024-01-06T01:25:03;98747.97;;;7.06;100.00
49759;BME280;70329;45.524;10.194;2024-01-06T01:27:36;98747.91;;;7.11;100.00
49759;BME280;70329;45.524;10.194;2024-01-06T01:30:04;98743.31;;;7.07;100.00
49759;BME280;70329;45.524;10.194;2024-01-06T01:32:36;98736.47;;;7.09;100.00
49759;BME280;70329;45.524;10.194;2024-01-06T01:35:03;98740.25;;;7.13;100.00
49759;BME280;70329;45.524;10.194;2024-01-06T01:37:31;98741.91;;;7.09;100.00
49759;BME280;70329;45.524;10.194;2024-01-06T01:40:02;98740.84;;;7.10;100.00
49759;BME280;70329;45.524;10.194;2024-01-06T01:42:30;98738.69;;;7.07;100.00
49759;BME280;70329;45.524;10.194;2024-01-06T01:44:59;98733.00;;;7.03;100.00
49759;BME280;70329;45.524;10.194;2024-01-06T01:47:27;98729.75;;;7.01;100.00
49759;BME280;70329;45.524;10.194;2024-01-06T01:49:54;98719.44;;;6.98;100.00
49759;BME280;70329;45.524;10.194;2024-01-06T01:52:22;98722.41;;;7.02;100.00
49759;BME280;70329;45.524;10.194;2024-01-06T01:54:50;98714.53;;;7.00;100.00
49759;BME280;70329;45.524;10.194;2024-01-06T01:57:19;98713.19;;;6.98;100.00
49759;BME280;70329;45.524;10.194;2024-01-06T01:59:48;98699.88;;;6.96;100.00
49759;BME280;70329;45.524;10.194;2024-01-06T02:02:17;98708.28;;;7.00;100.00
49759;BME280;70329;45.524;10.194;2024-01-06T02:04:45;98709.38;;;6.99;100.00
49759;BME280;70329;45.524;10.194;2024-01-06T02:07:13;98697.91;;;7.02;100.00
49759;BME280;70329;45.524;10.194;2024-01-06T02:09:40;98698.47;;;6.99;100.00
49759;BME280;70329;45.524;10.194;2024-01-06T02:12:08;98696.00;;;7.02;100.00
49759;BME280;70329;45.524;10.194;2024-01-06T02:14:35;98699.75;;;7.07;100.00
49759;BME280;70329;45.524;10.194;2024-01-06T02:17:03;98701.16;;;7.04;100.00
49759;BME280;70329;45.524;10.194;2024-01-06T02:19:32;98696.53;;;7.04;100.00
49759;BME280;70329;45.524;10.194;2024-01-06T02:22:01;98694.88;;;7.03;100.00
49759;BME280;70329;45.524;10.194;2024-01-06T02:24:29;98694.03;;;7.08;100.00
49759;BME280;70329;45.524;10.194;2024-01-06T02:26:56;98695.13;;;7.07;100.00
49759;BME280;70329;45.524;10.194;2024-01-06T02:29:24;98691.19;;;6.94;100.00
49759;BME280;70329;45.524;10.194;2024-01-06T02:31:52;98687.72;;;6.89;100.00
49759;BME280;70329;45.524;10.194;2024-01-06T02:34:20;98680.53;;;6.98;100.00
49759;BME280;70329;45.524;10.194;2024-01-06T02:36:48;98680.88;;;6.91;100.00
49759;BME280;70329;45.524;10.194;2024-01-06T02:39:17;98684.84;;;6.75;100.00
49759;BME280;70329;45.524;10.194;2024-01-06T02:41:44;98678.16;;;6.63;100.00
49759;BME280;70329;45.524;10.194;2024-01-06T02:44:10;98678.41;;;6.66;100.00
49759;BME280;70329;45.524;10.194;2024-01-06T02:46:38;98682.56;;;6.59;100.00
49759;BME280;70329;45.524;10.194;2024-01-06T02:49:05;98670.75;;;6.68;100.00
49759;BME280;70329;45.524;10.194;2024-01-06T02:51:31;98671.06;;;6.62;100.00
49759;BME280;70329;45.524;10.194;2024-01-06T02:53:58;98663.47;;;6.64;100.00
49759;BME280;70329;45.524;10.194;2024-01-06T02:56:26;98668.34;;;6.67;100.00
49759;BME280;70329;45.524;10.194;2024-01-06T02:58:52;98655.75;;;6.71;100.00
49759;BME280;70329;45.524;10.194;2024-01-06T03:01:19;98658.16;;;6.77;100.00
49759;BME280;70329;45.524;10.194;2024-01-06T03:03:45;98657.91;;;6.74;100.00
49759;BME280;70329;45.524;10.194;2024-01-06T03:06:10;98654.50;;;6.63;100.00
49759;BME280;70329;45.524;10.194;2024-01-06T03:08:37;98654.25;;;6.60;100.00
49759;BME280;70329;45.524;10.194;2024-01-06T03:11:03;98658.66;;;6.56;100.00
49759;BME280;70329;45.524;10.194;2024-01-06T03:13:32;98656.00;;;6.45;100.00
49759;BME280;70329;45.524;10.194;2024-01-06T03:16:01;98651.63;;;6.50;100.00
49759;BME280;70329;45.524;10.194;2024-01-06T03:18:27;98651.88;;;6.53;100.00
49759;BME280;70329;45.524;10.194;2024-01-06T03:20:53;98655.38;;;6.54;100.00
49759;BME280;70329;45.524;10.194;2024-01-06T03:23:20;98654.75;;;6.62;100.00
49759;BME280;70329;45.524;10.194;2024-01-06T03:25:46;98655.63;;;6.57;100.00
49759;BME280;70329;45.524;10.194;2024-01-06T03:28:13;98658.28;;;6.62;100.00
49759;BME280;70329;45.524;10.194;2024-01-06T03:30:40;98653.16;;;6.61;100.00
49759;BME280;70329;45.524;10.194;2024-01-06T03:33:07;98649.16;;;6.53;100.00
49759;BME280;70329;45.524;10.194;2024-01-06T03:35:33;98649.03;;;6.63;100.00
49759;BME280;70329;45.524;10.194;2024-01-06T03:38:00;98648.22;;;6.63;100.00
49759;BME280;70329;45.524;10.194;2024-01-06T03:40:26;98649.03;;;6.63;100.00
49759;BME280;70329;45.524;10.194;2024-01-06T03:42:52;98651.81;;;6.58;100.00
49759;BME280;70329;45.524;10.194;2024-01-06T03:45:19;98648.41;;;6.42;100.00
49759;BME280;70329;45.524;10.194;2024-01-06T03:47:47;98643.78;;;6.43;100.00
49759;BME280;70329;45.524;10.194;2024-01-06T03:50:13;98643.28;;;6.41;100.00
49759;BME280;70329;45.524;10.194;2024-01-06T03:52:40;98655.81;;;6.37;100.00
49759;BME280;70329;45.524;10.194;2024-01-06T03:55:07;98661.28;;;6.32;100.00
49759;BME280;70329;45.524;10.194;2024-01-06T03:57:34;98659.69;;;6.26;100.00
49759;BME280;70329;45.524;10.194;2024-01-06T04:00:00;98660.50;;;6.26;100.00
49759;BME280;70329;45.524;10.194;2024-01-06T04:02:26;98662.97;;;6.23;100.00
49759;BME280;70329;45.524;10.194;2024-01-06T04:04:54;98658.94;;;6.20;100.00
49759;BME280;70329;45.524;10.194;2024-01-06T04:07:21;98663.59;;;6.15;100.00
49759;BME280;70329;45.524;10.194;2024-01-06T04:09:47;98654.09;;;6.12;100.00
49759;BME280;70329;45.524;10.194;2024-01-06T04:12:13;98655.38;;;6.20;100.00
49759;BME280;70329;45.524;10.194;2024-01-06T04:14:40;98660.81;;;6.25;100.00
49759;BME280;70329;45.524;10.194;2024-01-06T04:17:06;98658.09;;;6.25;100.00
49759;BME280;70329;45.524;10.194;2024-01-06T04:19:33;98659.66;;;6.31;100.00
49759;BME280;70329;45.524;10.194;2024-01-06T04:22:00;98663.75;;;6.28;100.00
49759;BME280;70329;45.524;10.194;2024-01-06T04:24:27;98661.81;;;6.34;100.00
49759;BME280;70329;45.524;10.194;2024-01-06T04:26:53;98661.75;;;6.44;100.00
49759;BME280;70329;45.524;10.194;2024-01-06T04:29:20;98655.19;;;6.45;100.00
49759;BME280;70329;45.524;10.194;2024-01-06T04:31:46;98667.44;;;6.42;100.00
49759;BME280;70329;45.524;10.194;2024-01-06T04:34:12;98670.72;;;6.44;100.00
49759;BME280;70329;45.524;10.194;2024-01-06T04:36:39;98662.09;;;6.32;100.00
49759;BME280;70329;45.524;10.194;2024-01-06T04:39:07;98670.22;;;6.37;100.00
49759;BME280;70329;45.524;10.194;2024-01-06T04:41:33;98660.16;;;6.38;100.00
49759;BME280;70329;45.524;10.194;2024-01-06T04:44:00;98668.88;;;6.35;100.00
49759;BME280;70329;45.524;10.194;2024-01-06T04:46:26;98666.47;;;6.28;100.00
49759;BME280;70329;45.524;10.194;2024-01-06T04:48:52;98656.66;;;6.32;100.00
49759;BME280;70329;45.524;10.194;2024-01-06T04:51:19;98649.78;;;6.40;100.00
49759;BME280;70329;45.524;10.194;2024-01-06T04:53:45;98651.38;;;6.46;100.00
49759;BME280;70329;45.524;10.194;2024-01-06T04:56:13;98656.81;;;6.46;100.00
49759;BME280;70329;45.524;10.194;2024-01-06T04:58:41;98656.91;;;6.36;100.00
49759;BME280;70329;45.524;10.194;2024-01-06T05:01:09;98652.50;;;6.40;100.00
49759;BME280;70329;45.524;10.194;2024-01-06T05:03:36;98648.72;;;6.41;100.00
49759;BME280;70329;45.524;10.194;2024-01-06T05:06:04;98635.63;;;6.43;100.00
49759;BME280;70329;45.524;10.194;2024-01-06T05:08:32;98632.28;;;6.51;100.00
49759;BME280;70329;45.524;10.194;2024-01-06T05:10:59;98644.47;;;6.59;100.00
49759;BME280;70329;45.524;10.194;2024-01-06T05:13:29;98637.09;;;6.59;100.00
49759;BME280;70329;45.524;10.194;2024-01-06T05:15:56;98639.56;;;6.61;100.00
49759;BME280;70329;45.524;10.194;2024-01-06T05:18:24;98648.75;;;6.65;100.00
49759;BME280;70329;45.524;10.194;2024-01-06T05:20:52;98641.91;;;6.67;100.00
49759;BME280;70329;45.524;10.194;2024-01-06T05:23:20;98639.59;;;6.56;100.00
49759;BME280;70329;45.524;10.194;2024-01-06T05:25:48;98632.53;;;6.55;100.00
49759;BME280;70329;45.524;10.194;2024-01-06T05:28:15;98632.78;;;6.58;100.00
49759;BME280;70329;45.524;10.194;2024-01-06T05:30:44;98619.94;;;6.64;100.00
49759;BME280;70329;45.524;10.194;2024-01-06T05:33:12;98620.03;;;6.54;100.00
49759;BME280;70329;45.524;10.194;2024-01-06T05:35:41;98615.22;;;6.45;100.00
49759;BME280;70329;45.524;10.194;2024-01-06T05:38:11;98613.34;;;6.41;100.00
49759;BME280;70329;45.524;10.194;2024-01-06T05:40:38;98618.16;;;6.49;100.00
49759;BME280;70329;45.524;10.194;2024-01-06T05:43:04;98611.84;;;6.59;100.00
49759;BME280;70329;45.524;10.194;2024-01-06T05:45:31;98613.13;;;6.66;100.00
49759;BME280;70329;45.524;10.194;2024-01-06T05:47:58;98609.00;;;6.69;100.00
49759;BME280;70329;45.524;10.194;2024-01-06T05:50:25;98602.47;;;6.70;100.00
49759;BME280;70329;45.524;10.194;2024-01-06T05:52:51;98613.38;;;6.65;100.00
49759;BME280;70329;45.524;10.194;2024-01-06T05:55:18;98608.69;;;6.70;100.00
49759;BME280;70329;45.524;10.194;2024-01-06T05:57:45;98615.59;;;6.63;100.00
49759;BME280;70329;45.524;10.194;2024-01-06T06:00:12;98624.44;;;6.50;100.00
49759;BME280;70329;45.524;10.194;2024-01-06T06:02:39;98613.19;;;6.56;100.00
49759;BME280;70329;45.524;10.194;2024-01-06T06:05:07;98616.69;;;6.62;100.00
49759;BME280;70329;45.524;10.194;2024-01-06T06:07:33;98616.50;;;6.53;100.00
49759;BME280;70329;45.524;10.194;2024-01-06T06:10:06;98616.72;;;6.57;100.00
49759;BME280;70329;45.524;10.194;2024-01-06T06:12:33;98629.31;;;6.53;100.00
49759;BME280;70329;45.524;10.194;2024-01-06T06:15:00;98636.63;;;6.52;100.00
49759;BME280;70329;45.524;10.194;2024-01-06T06:17:31;98636.00;;;6.60;100.00
49759;BME280;70329;45.524;10.194;2024-01-06T06:19:58;98635.56;;;6.48;100.00
49759;BME280;70329;45.524;10.194;2024-01-06T06:22:27;98638.88;;;6.45;100.00
49759;BME280;70329;45.524;10.194;2024-01-06T06:24:57;98640.25;;;6.42;100.00
49759;BME280;70329;45.524;10.194;2024-01-06T06:27:27;98636.44;;;6.43;100.00
49759;BME280;70329;45.524;10.194;2024-01-06T06:29:54;98638.09;;;6.39;100.00
49759;BME280;70329;45.524;10.194;2024-01-06T06:32:21;98644.16;;;6.31;100.00
49759;BME280;70329;45.524;10.194;2024-01-06T06:34:47;98638.16;;;6.34;100.00
49759;BME280;70329;45.524;10.194;2024-01-06T06:37:15;98639.78;;;6.35;100.00
49759;BME280;70329;45.524;10.194;2024-01-06T06:39:50;98644.31;;;6.45;100.00
49759;BME280;70329;45.524;10.194;2024-01-06T06:42:20;98643.28;;;6.41;100.00
49759;BME280;70329;45.524;10.194;2024-01-06T06:44:48;98662.09;;;6.32;100.00
49759;BME280;70329;45.524;10.194;2024-01-06T06:47:15;98655.00;;;6.36;100.00
49759;BME280;70329;45.524;10.194;2024-01-06T06:49:41;98634.59;;;6.39;100.00
49759;BME280;70329;45.524;10.194;2024-01-06T06:52:08;98631.00;;;6.43;100.00
49759;BME280;70329;45.524;10.194;2024-01-06T06:54:38;98633.72;;;6.43;100.00
49759;BME280;70329;45.524;10.194;2024-01-06T06:57:06;98628.53;;;6.47;100.00
49759;BME280;70329;45.524;10.194;2024-01-06T06:59:33;98628.53;;;6.47;100.00
49759;BME280;70329;45.524;10.194;2024-01-06T07:02:01;98628.00;;;6.45;100.00
49759;BME280;70329;45.524;10.194;2024-01-06T07:04:29;98625.00;;;6.47;100.00
49759;BME280;70329;45.524;10.194;2024-01-06T07:06:57;98629.31;;;6.53;100.00
49759;BME280;70329;45.524;10.194;2024-01-06T07:09:25;98624.69;;;6.48;100.00
49759;BME280;70329;45.524;10.194;2024-01-06T07:11:53;98623.09;;;6.47;100.00
49759;BME280;70329;45.524;10.194;2024-01-06T07:14:28;98627.72;;;6.47;100.00
49759;BME280;70329;45.524;10.194;2024-01-06T07:16:54;98622.53;;;6.50;100.00
49759;BME280;70329;45.524;10.194;2024-01-06T07:19:21;98616.03;;;6.46;100.00
49759;BME280;70329;45.524;10.194;2024-01-06T07:21:47;98621.72;;;6.50;100.00
49759;BME280;70329;45.524;10.194;2024-01-06T07:24:13;98632.28;;;6.51;100.00
49759;BME280;70329;45.524;10.194;2024-01-06T07:26:40;98621.97;;;6.53;100.00
49759;BME280;70329;45.524;10.194;2024-01-06T07:29:06;98630.38;;;6.52;100.00
49759;BME280;70329;45.524;10.194;2024-01-06T07:31:34;98627.97;;;6.50;100.00
49759;BME280;70329;45.524;10.194;2024-01-06T07:34:01;98639.13;;;6.49;100.00
49759;BME280;70329;45.524;10.194;2024-01-06T07:36:27;98633.34;;;6.55;100.00
49759;BME280;70329;45.524;10.194;2024-01-06T07:38:53;98634.16;;;6.56;100.00
49759;BME280;70329;45.524;10.194;2024-01-06T07:41:21;98634.16;;;6.56;100.00
49759;BME280;70329;45.524;10.194;2024-01-06T07:43:47;98632.22;;;6.56;100.00
49759;BME280;70329;45.524;10.194;2024-01-06T07:46:14;98638.50;;;6.57;100.00
49759;BME280;70329;45.524;10.194;2024-01-06T07:48:41;98633.97;;;6.47;100.00
49759;BME280;70329;45.524;10.194;2024-01-06T07:51:08;98643.47;;;6.50;100.00
49759;BME280;70329;45.524;10.194;2024-01-06T07:53:34;98648.66;;;6.46;100.00
49759;BME280;70329;45.524;10.194;2024-01-06T07:56:01;98648.91;;;6.50;100.00
49759;BME280;70329;45.524;10.194;2024-01-06T07:58:28;98645.38;;;6.49;100.00
49759;BME280;70329;45.524;10.194;2024-01-06T08:00:54;98650.28;;;6.47;100.00
49759;BME280;70329;45.524;10.194;2024-01-06T08:03:20;98636.44;;;6.43;100.00
49759;BME280;70329;45.524;10.194;2024-01-06T08:05:48;98639.94;;;6.49;100.00
49759;BME280;70329;45.524;10.194;2024-01-06T08:08:15;98649.41;;;6.52;100.00
49759;BME280;70329;45.524;10.194;2024-01-06T08:10:43;98646.25;;;6.44;100.00
49759;BME280;70329;45.524;10.194;2024-01-06T08:13:11;98651.94;;;6.43;100.00
49759;BME280;70329;45.524;10.194;2024-01-06T08:15:39;98650.81;;;6.49;100.00
49759;BME280;70329;45.524;10.194;2024-01-06T08:18:07;98651.69;;;6.44;100.00
49759;BME280;70329;45.524;10.194;2024-01-06T08:20:34;98656.00;;;6.45;100.00
49759;BME280;70329;45.524;10.194;2024-01-06T08:23:02;98648.97;;;6.44;100.00
49759;BME280;70329;45.524;10.194;2024-01-06T08:25:29;98653.06;;;6.42;100.00
49759;BME280;70329;45.524;10.194;2024-01-06T08:27:56;98656.06;;;6.40;100.00
49759;BME280;70329;45.524;10.194;2024-01-06T08:30:22;98667.78;;;6.36;100.00
49759;BME280;70329;45.524;10.194;2024-01-06T08:32:49;98669.94;;;6.39;100.00
49759;BME280;70329;45.524;10.194;2024-01-06T08:35:17;98679.13;;;6.43;100.00
49759;BME280;70329;45.524;10.194;2024-01-06T08:37:44;98680.53;;;6.40;100.00
49759;BME280;70329;45.524;10.194;2024-01-06T08:40:12;98682.16;;;6.41;100.00
49759;BME280;70329;45.524;10.194;2024-01-06T08:42:39;98676.25;;;6.29;100.00
49759;BME280;70329;45.524;10.194;2024-01-06T08:45:05;98684.97;;;6.26;100.00
49759;BME280;70329;45.524;10.194;2024-01-06T08:47:32;98688.78;;;6.30;100.00
49759;BME280;70329;45.524;10.194;2024-01-06T08:49:58;98688.22;;;6.33;100.00
49759;BME280;70329;45.524;10.194;2024-01-06T08:52:24;98688.50;;;6.27;100.00
49759;BME280;70329;45.524;10.194;2024-01-06T08:54:51;98683.03;;;6.32;100.00
49759;BME280;70329;45.524;10.194;2024-01-06T08:57:19;98689.81;;;6.34;100.00
49759;BME280;70329;45.524;10.194;2024-01-06T08:59:45;98685.69;;;6.42;100.00
49759;BME280;70329;45.524;10.194;2024-01-06T09:02:11;98687.03;;;6.39;100.00
49759;BME280;70329;45.524;10.194;2024-01-06T09:04:38;98690.59;;;6.40;100.00
49759;BME280;70329;45.524;10.194;2024-01-06T09:07:04;98675.38;;;6.39;100.00
49759;BME280;70329;45.524;10.194;2024-01-06T09:09:31;98683.53;;;6.39;100.00
49759;BME280;70329;45.524;10.194;2024-01-06T09:11:57;98680.28;;;6.37;100.00
49759;BME280;70329;45.524;10.194;2024-01-06T09:14:25;98681.91;;;6.38;100.00
49759;BME280;70329;45.524;10.194;2024-01-06T09:16:52;98678.09;;;6.39;100.00
49759;BME280;70329;45.524;10.194;2024-01-06T09:19:19;98672.09;;;6.42;100.00
49759;BME280;70329;45.524;10.194;2024-01-06T09:21:45;98669.59;;;6.45;100.00
49759;BME280;70329;45.524;10.194;2024-01-06T09:24:12;98673.66;;;6.48;100.00
49759;BME280;70329;45.524;10.194;2024-01-06T09:26:38;98670.38;;;6.51;100.00
49759;BME280;70329;45.524;10.194;2024-01-06T09:29:04;98673.91;;;6.52;100.00
49759;BME280;70329;45.524;10.194;2024-01-06T09:31:32;98664.09;;;6.56;100.00
49759;BME280;70329;45.524;10.194;2024-01-06T09:34:00;98667.84;;;6.60;100.00
49759;BME280;70329;45.524;10.194;2024-01-06T09:36:26;98664.03;;;6.61;100.00
49759;BME280;70329;45.524;10.194;2024-01-06T09:38:53;98659.09;;;6.63;100.00
49759;BME280;70329;45.524;10.194;2024-01-06T09:41:20;98664.28;;;6.64;100.00
49759;BME280;70329;45.524;10.194;2024-01-06T09:43:47;98667.78;;;6.65;100.00
49759;BME280;70329;45.524;10.194;2024-01-06T09:46:21;98671.06;;;6.67;100.00
49759;BME280;70329;45.524;10.194;2024-01-06T09:48:51;98655.25;;;6.69;100.00
49759;BME280;70329;45.524;10.194;2024-01-06T09:51:19;98671.84;;;6.67;100.00
49759;BME280;70329;45.524;10.194;2024-01-06T09:53:47;98668.28;;;6.72;100.00
49759;BME280;70329;45.524;10.194;2024-01-06T09:56:14;98666.59;;;6.76;100.00
49759;BME280;70329;45.524;10.194;2024-01-06T09:58:41;98668.56;;;6.70;100.00
49759;BME280;70329;45.524;10.194;2024-01-06T10:01:08;98665.31;;;6.68;100.00
49759;BME280;70329;45.524;10.194;2024-01-06T10:03:35;98660.38;;;6.70;100.00
49759;BME280;70329;45.524;10.194;2024-01-06T10:06:03;98651.44;;;6.70;100.00
49759;BME280;70329;45.524;10.194;2024-01-06T10:08:32;98651.72;;;6.68;100.00
49759;BME280;70329;45.524;10.194;2024-01-06T10:11:00;98649.25;;;6.72;100.00
49759;BME280;70329;45.524;10.194;2024-01-06T10:13:26;98644.38;;;6.69;100.00
49759;BME280;70329;45.524;10.194;2024-01-06T10:15:53;98642.97;;;6.71;100.00
49759;BME280;70329;45.524;10.194;2024-01-06T10:18:20;98651.09;;;6.76;100.00
49759;BME280;70329;45.524;10.194;2024-01-06T10:20:47;98648.56;;;6.85;100.00
49759;BME280;70329;45.524;10.194;2024-01-06T10:23:15;98644.44;;;6.87;100.00
49759;BME280;70329;45.524;10.194;2024-01-06T10:25:41;98644.44;;;6.87;100.00
49759;BME280;70329;45.524;10.194;2024-01-06T10:28:10;98644.09;;;6.94;100.00
49759;BME280;70329;45.524;10.194;2024-01-06T10:30:37;98634.25;;;6.98;100.00
49759;BME280;70329;45.524;10.194;2024-01-06T10:33:07;98636.34;;;7.06;100.00
49759;BME280;70329;45.524;10.194;2024-01-06T10:35:33;98628.19;;;7.06;100.00
49759;BME280;70329;45.524;10.194;2024-01-06T10:38:01;98627.31;;;7.11;100.00
49759;BME280;70329;45.524;10.194;2024-01-06T10:40:30;98628.66;;;7.13;100.00
49759;BME280;70329;45.524;10.194;2024-01-06T10:42:58;98623.78;;;7.10;100.00
49759;BME280;70329;45.524;10.194;2024-01-06T10:45:28;98620.47;;;7.13;100.00
49759;BME280;70329;45.524;10.194;2024-01-06T10:47:55;98616.34;;;7.16;100.00
49759;BME280;70329;45.524;10.194;2024-01-06T10:50:21;98618.00;;;7.17;100.00
49759;BME280;70329;45.524;10.194;2024-01-06T10:52:48;98616.09;;;7.17;100.00
49759;BME280;70329;45.524;10.194;2024-01-06T10:55:15;98615.44;;;7.25;100.00
49759;BME280;70329;45.524;10.194;2024-01-06T10:57:44;98616.75;;;7.28;100.00
49759;BME280;70329;45.524;10.194;2024-01-06T11:00:11;98616.19;;;7.31;100.00
49759;BME280;70329;45.524;10.194;2024-01-06T11:02:38;98611.56;;;7.31;100.00
49759;BME280;70329;45.524;10.194;2024-01-06T11:05:05;98606.63;;;7.33;100.00
49759;BME280;70329;45.524;10.194;2024-01-06T11:07:32;98597.94;;;7.31;100.00
49759;BME280;70329;45.524;10.194;2024-01-06T11:10:02;98604.97;;;7.32;100.00
49759;BME280;70329;45.524;10.194;2024-01-06T11:12:30;98594.59;;;7.34;100.00
49759;BME280;70329;45.524;10.194;2024-01-06T11:14:58;98588.28;;;7.39;100.00
49759;BME280;70329;45.524;10.194;2024-01-06T11:20:09;98586.00;;;7.46;100.00
49759;BME280;70329;45.524;10.194;2024-01-06T11:22:36;98587.91;;;7.45;100.00
49759;BME280;70329;45.524;10.194;2024-01-06T11:25:07;98583.00;;;7.47;100.00
49759;BME280;70329;45.524;10.194;2024-01-06T11:27:34;98575.09;;;7.46;100.00
49759;BME280;70329;45.524;10.194;2024-01-06T11:30:05;98578.88;;;7.50;100.00
49759;BME280;70329;45.524;10.194;2024-01-06T11:32:33;98572.63;;;7.49;100.00
49759;BME280;70329;45.524;10.194;2024-01-06T11:35:08;98568.06;;;7.45;100.00
49759;BME280;70329;45.524;10.194;2024-01-06T11:37:37;98560.91;;;7.49;100.00
49759;BME280;70329;45.524;10.194;2024-01-06T11:40:22;98559.81;;;7.50;100.00
49759;BME280;70329;45.524;10.194;2024-01-06T11:42:56;98555.19;;;7.50;100.00
49759;BME280;70329;45.524;10.194;2024-01-06T11:45:24;98549.16;;;7.53;100.00
49759;BME280;70329;45.524;10.194;2024-01-06T11:47:54;98548.25;;;7.58;100.00
49759;BME280;70329;45.524;10.194;2024-01-06T11:50:20;98552.06;;;7.57;100.00
49759;BME280;70329;45.524;10.194;2024-01-06T11:52:48;98547.94;;;7.59;100.00
49759;BME280;70329;45.524;10.194;2024-01-06T11:55:16;98545.75;;;7.61;100.00
49759;BME280;70329;45.524;10.194;2024-01-06T11:57:43;98541.13;;;7.62;100.00
49759;BME280;70329;45.524;10.194;2024-01-06T12:00:10;98539.50;;;7.61;100.00
49759;BME280;70329;45.524;10.194;2024-01-06T12:02:40;98532.41;;;7.60;100.00
49759;BME280;70329;45.524;10.194;2024-01-06T12:05:11;98532.22;;;7.56;100.00
49759;BME280;70329;45.524;10.194;2024-01-06T12:07:38;98535.53;;;7.53;100.00
49759;BME280;70329;45.524;10.194;2024-01-06T12:10:05;98528.94;;;7.54;100.00
49759;BME280;70329;45.524;10.194;2024-01-06T12:12:32;98531.75;;;7.49;100.00
49759;BME280;70329;45.524;10.194;2024-01-06T12:14:59;98530.66;;;7.50;100.00
49759;BME280;70329;45.524;10.194;2024-01-06T12:17:27;98521.09;;;7.53;100.00
49759;BME280;70329;45.524;10.194;2024-01-06T12:19:57;98517.97;;;7.59;100.00
49759;BME280;70329;45.524;10.194;2024-01-06T12:22:25;98502.34;;;7.65;100.00
49759;BME280;70329;45.524;10.194;2024-01-06T12:24:52;98502.16;;;7.61;100.00
49759;BME280;70329;45.524;10.194;2024-01-06T12:27:19;98506.28;;;7.59;100.00
49759;BME280;70329;45.524;10.194;2024-01-06T12:29:46;98505.16;;;7.60;100.00
49759;BME280;70329;45.524;10.194;2024-01-06T12:32:13;98493.41;;;7.65;100.00
49759;BME280;70329;45.524;10.194;2024-01-06T12:34:39;98498.63;;;7.61;100.00
49759;BME280;70329;45.524;10.194;2024-01-06T12:37:07;98498.63;;;7.61;100.00
49759;BME280;70329;45.524;10.194;2024-01-06T12:39:34;98497.81;;;7.60;100.00
49759;BME280;70329;45.524;10.194;2024-01-06T12:42:00;98490.13;;;7.62;100.00
49759;BME280;70329;45.524;10.194;2024-01-06T12:44:27;98493.16;;;7.61;100.00
49759;BME280;70329;45.524;10.194;2024-01-06T12:46:53;98489.03;;;7.63;100.00
49759;BME280;70329;45.524;10.194;2024-01-06T12:49:20;98484.09;;;7.66;100.00
49759;BME280;70329;45.524;10.194;2024-01-06T12:51:47;98480.78;;;7.69;100.00
49759;BME280;70329;45.524;10.194;2024-01-06T12:54:14;98480.56;;;7.65;100.00